Main page
METAR-TAF:

METAR-TAF

Airports :

Avignon, France

Avignon – Provence Airport

latitude: 43-54-26N, longitude: 004-54-07E, elevation: 38 m

Current weather observation

The report was made 19 minutes ago, at 11:30 UTC
Wind 12 kt from the North
Temperature 12°C
Humidity 47%
Pressure 1022 hPa
Visibility 10 km or more
no clouds below 1500 m and no cumulonimbus

METAR: LFMV 201130Z AUTO 36012KT CAVOK 12/01 Q1022 NOSIG

Time: 12:49 (11:49 UTC)

Forecast

The report was made 2 hours and 19 minutes ago, at 09:30 UTC
Forecast valid from 20 at 09 UTC to 21 at 09 UTC
Wind 15 kt from the North
Visibility 10 km or more
no clouds below 1500 m and no cumulonimbus
Becoming
from 20 at 22 UTC to 20 at 24 UTC
Wind 6 kt from the North/Northwest

TAF: LFMV 200930Z 2009/2109 35015KT CAVOK BECMG 2022/2024 33006KT

Weather observations and forecasts of more than 4000 airports (METAR and TAF reports).

The available stations are represented by yellow and red dots on the map.

Hover mouse over dot to see the name of the station.

Then click to see weather observations and forecasts.

To change the map : click on the green buttons with a black cross to zoom in, on the green button with a dash to zoom out, or on the green arrows for adjacent maps.


METAR-TAF: